Ashland, Texas
Current Conditions -  °F | °C
As of 3:53 PM on Friday 19 Dec 2014 (Local Time) from KGGG Reporting Station
Overcast Overcast  
Wind Chill: 50°   Ceiling: 900
Heat Index: 50°   Visibility: 10mi
Dew Point: 46°   Wind: 6mph
Humidity: 86%   Direction: 40°NE
Pressure: 30.12"   Gusts: NA
Location:  32.6998°N, 94.6696°W
Report Text: KGGG 192153Z 04005KT 10SM BKN009 OVC016 10/08 A3012 RMK AO2 SLP199 T01000078
Loading
Personal Weather Stations






























Interactive Weather Map New forecast layout! Learn more

10-Day Weather Forecast

Advertisements
Track Severe Weather on mobile